sensor_id;sensor_type;location;lat;lon;timestamp;temperature;humidity
13086;DHT22;6609;49.882;8.664;2022-11-15T00:01:07;13.60;70.10
13086;DHT22;6609;49.882;8.664;2022-11-15T00:03:34;13.60;70.30
13086;DHT22;6609;49.882;8.664;2022-11-15T00:06:02;13.60;70.30
13086;DHT22;6609;49.882;8.664;2022-11-15T00:08:29;13.50;70.20
13086;DHT22;6609;49.882;8.664;2022-11-15T00:10:59;13.50;70.30
13086;DHT22;6609;49.882;8.664;2022-11-15T00:13:27;13.50;70.50
13086;DHT22;6609;49.882;8.664;2022-11-15T00:15:57;13.50;70.50
13086;DHT22;6609;49.882;8.664;2022-11-15T00:18:24;13.40;70.50
13086;DHT22;6609;49.882;8.664;2022-11-15T00:20:50;13.40;70.70
13086;DHT22;6609;49.882;8.664;2022-11-15T00:23:17;13.40;71.10
13086;DHT22;6609;49.882;8.664;2022-11-15T00:25:44;13.30;71.10
13086;DHT22;6609;49.882;8.664;2022-11-15T00:28:12;13.30;71.10
13086;DHT22;6609;49.882;8.664;2022-11-15T00:30:39;13.40;71.90
13086;DHT22;6609;49.882;8.664;2022-11-15T00:33:06;13.10;72.10
13086;DHT22;6609;49.882;8.664;2022-11-15T00:35:33;13.10;72.60
13086;DHT22;6609;49.882;8.664;2022-11-15T00:38:01;13.00;72.90
13086;DHT22;6609;49.882;8.664;2022-11-15T00:40:28;13.00;73.20
13086;DHT22;6609;49.882;8.664;2022-11-15T00:42:55;13.00;73.40
13086;DHT22;6609;49.882;8.664;2022-11-15T00:45:24;13.00;73.70
13086;DHT22;6609;49.882;8.664;2022-11-15T00:47:51;13.00;73.90
13086;DHT22;6609;49.882;8.664;2022-11-15T00:50:18;13.00;74.10
13086;DHT22;6609;49.882;8.664;2022-11-15T00:52:45;14.00;75.00
13086;DHT22;6609;49.882;8.664;2022-11-15T00:55:13;13.10;74.00
13086;DHT22;6609;49.882;8.664;2022-11-15T00:57:41;13.20;73.70
13086;DHT22;6609;49.882;8.664;2022-11-15T01:00:08;13.20;73.60
13086;DHT22;6609;49.882;8.664;2022-11-15T01:02:38;13.30;73.60
13086;DHT22;6609;49.882;8.664;2022-11-15T01:05:06;13.30;73.30
13086;DHT22;6609;49.882;8.664;2022-11-15T01:07:33;13.30;73.10
13086;DHT22;6609;49.882;8.664;2022-11-15T01:10:00;13.40;73.20
13086;DHT22;6609;49.882;8.664;2022-11-15T01:12:27;13.40;73.20
13086;DHT22;6609;49.882;8.664;2022-11-15T01:14:53;13.40;73.20
13086;DHT22;6609;49.882;8.664;2022-11-15T01:17:20;13.40;73.40
13086;DHT22;6609;49.882;8.664;2022-11-15T01:19:48;13.40;73.50
13086;DHT22;6609;49.882;8.664;2022-11-15T01:22:15;13.40;73.60
13086;DHT22;6609;49.882;8.664;2022-11-15T01:24:42;13.30;73.80
13086;DHT22;6609;49.882;8.664;2022-11-15T01:27:09;13.30;73.90
13086;DHT22;6609;49.882;8.664;2022-11-15T01:29:36;13.40;74.10
13086;DHT22;6609;49.882;8.664;2022-11-15T01:32:02;13.30;74.20
13086;DHT22;6609;49.882;8.664;2022-11-15T01:34:29;13.30;74.30
13086;DHT22;6609;49.882;8.664;2022-11-15T01:36:57;13.30;74.50
13086;DHT22;6609;49.882;8.664;2022-11-15T01:39:24;13.30;74.80
13086;DHT22;6609;49.882;8.664;2022-11-15T01:41:51;13.20;75.10
13086;DHT22;6609;49.882;8.664;2022-11-15T01:44:52;13.10;75.40
13086;DHT22;6609;49.882;8.664;2022-11-15T01:47:22;13.10;75.80
13086;DHT22;6609;49.882;8.664;2022-11-15T01:49:54;13.00;76.00
13086;DHT22;6609;49.882;8.664;2022-11-15T01:52:25;12.90;76.50
13086;DHT22;6609;49.882;8.664;2022-11-15T01:54:56;12.80;76.70
13086;DHT22;6609;49.882;8.664;2022-11-15T01:57:24;12.70;77.20
13086;DHT22;6609;49.882;8.664;2022-11-15T01:59:51;12.60;77.70
13086;DHT22;6609;49.882;8.664;2022-11-15T02:02:18;12.60;78.40
13086;DHT22;6609;49.882;8.664;2022-11-15T02:04:46;12.50;78.90
13086;DHT22;6609;49.882;8.664;2022-11-15T02:07:15;12.50;79.30
13086;DHT22;6609;49.882;8.664;2022-11-15T02:09:45;12.50;79.60
13086;DHT22;6609;49.882;8.664;2022-11-15T02:12:14;12.50;80.00
13086;DHT22;6609;49.882;8.664;2022-11-15T02:14:43;12.40;80.30
13086;DHT22;6609;49.882;8.664;2022-11-15T02:17:20;12.40;80.70
13086;DHT22;6609;49.882;8.664;2022-11-15T02:20:09;12.40;80.90
13086;DHT22;6609;49.882;8.664;2022-11-15T02:22:49;12.40;81.20
13086;DHT22;6609;49.882;8.664;2022-11-15T02:25:36;12.40;81.50
13086;DHT22;6609;49.882;8.664;2022-11-15T02:28:35;12.40;81.90
13086;DHT22;6609;49.882;8.664;2022-11-15T02:31:11;12.70;82.40
13086;DHT22;6609;49.882;8.664;2022-11-15T02:33:44;12.40;82.10
13086;DHT22;6609;49.882;8.664;2022-11-15T02:36:18;12.40;82.10
13086;DHT22;6609;49.882;8.664;2022-11-15T02:38:53;12.40;82.10
13086;DHT22;6609;49.882;8.664;2022-11-15T02:41:25;12.40;82.10
13086;DHT22;6609;49.882;8.664;2022-11-15T02:43:58;12.40;81.60
13086;DHT22;6609;49.882;8.664;2022-11-15T02:46:31;12.40;82.10
13086;DHT22;6609;49.882;8.664;2022-11-15T02:49:17;12.40;82.20
13086;DHT22;6609;49.882;8.664;2022-11-15T02:51:47;12.80;82.20
13086;DHT22;6609;49.882;8.664;2022-11-15T02:54:17;12.40;81.80
13086;DHT22;6609;49.882;8.664;2022-11-15T02:56:46;12.40;81.50
13086;DHT22;6609;49.882;8.664;2022-11-15T02:59:21;12.40;81.30
13086;DHT22;6609;49.882;8.664;2022-11-15T03:02:00;12.40;81.00
13086;DHT22;6609;49.882;8.664;2022-11-15T03:04:36;12.50;81.00
13086;DHT22;6609;49.882;8.664;2022-11-15T03:07:07;12.40;80.90
13086;DHT22;6609;49.882;8.664;2022-11-15T03:09:42;12.30;80.70
13086;DHT22;6609;49.882;8.664;2022-11-15T03:12:14;12.20;81.20
13086;DHT22;6609;49.882;8.664;2022-11-15T03:14:49;12.10;80.90
13086;DHT22;6609;49.882;8.664;2022-11-15T03:17:24;12.00;81.10
13086;DHT22;6609;49.882;8.664;2022-11-15T03:19:54;11.90;81.40
13086;DHT22;6609;49.882;8.664;2022-11-15T03:22:23;11.80;81.60
13086;DHT22;6609;49.882;8.664;2022-11-15T03:24:53;11.70;81.60
13086;DHT22;6609;49.882;8.664;2022-11-15T03:27:24;11.60;81.70
13086;DHT22;6609;49.882;8.664;2022-11-15T03:29:54;11.50;82.80
13086;DHT22;6609;49.882;8.664;2022-11-15T03:32:26;11.40;82.30
13086;DHT22;6609;49.882;8.664;2022-11-15T03:34:58;11.40;82.80
13086;DHT22;6609;49.882;8.664;2022-11-15T03:37:30;11.30;83.10
13086;DHT22;6609;49.882;8.664;2022-11-15T03:39:59;11.30;83.50
13086;DHT22;6609;49.882;8.664;2022-11-15T03:42:30;11.20;83.50
13086;DHT22;6609;49.882;8.664;2022-11-15T03:45:01;11.20;83.80
13086;DHT22;6609;49.882;8.664;2022-11-15T03:47:34;11.20;84.20
13086;DHT22;6609;49.882;8.664;2022-11-15T03:50:04;11.10;84.70
13086;DHT22;6609;49.882;8.664;2022-11-15T03:52:34;11.10;85.00
13086;DHT22;6609;49.882;8.664;2022-11-15T03:55:03;11.10;85.20
13086;DHT22;6609;49.882;8.664;2022-11-15T03:57:30;11.10;85.30
13086;DHT22;6609;49.882;8.664;2022-11-15T03:59:57;11.10;85.60
13086;DHT22;6609;49.882;8.664;2022-11-15T04:02:24;11.10;85.80
13086;DHT22;6609;49.882;8.664;2022-11-15T04:04:52;11.10;86.00
13086;DHT22;6609;49.882;8.664;2022-11-15T04:07:19;11.00;86.10
13086;DHT22;6609;49.882;8.664;2022-11-15T04:09:45;11.10;86.40
13086;DHT22;6609;49.882;8.664;2022-11-15T04:12:31;11.10;86.70
13086;DHT22;6609;49.882;8.664;2022-11-15T04:14:59;11.00;86.60
13086;DHT22;6609;49.882;8.664;2022-11-15T04:17:37;11.00;86.60
13086;DHT22;6609;49.882;8.664;2022-11-15T04:20:08;11.00;86.90
13086;DHT22;6609;49.882;8.664;2022-11-15T04:22:54;11.00;87.10
13086;DHT22;6609;49.882;8.664;2022-11-15T04:25:38;11.10;87.40
13086;DHT22;6609;49.882;8.664;2022-11-15T04:28:05;11.10;87.50
13086;DHT22;6609;49.882;8.664;2022-11-15T04:30:32;11.10;87.70
13086;DHT22;6609;49.882;8.664;2022-11-15T04:32:58;11.10;87.70
13086;DHT22;6609;49.882;8.664;2022-11-15T04:35:26;11.10;88.00
13086;DHT22;6609;49.882;8.664;2022-11-15T04:37:53;11.10;88.10
13086;DHT22;6609;49.882;8.664;2022-11-15T04:40:19;11.10;88.30
13086;DHT22;6609;49.882;8.664;2022-11-15T04:42:46;11.10;88.50
13086;DHT22;6609;49.882;8.664;2022-11-15T04:45:12;11.10;88.70
13086;DHT22;6609;49.882;8.664;2022-11-15T04:47:39;11.20;89.00
13086;DHT22;6609;49.882;8.664;2022-11-15T04:50:07;11.20;89.00
13086;DHT22;6609;49.882;8.664;2022-11-15T04:52:35;11.20;89.10
13086;DHT22;6609;49.882;8.664;2022-11-15T04:55:01;11.20;89.20
13086;DHT22;6609;49.882;8.664;2022-11-15T04:57:28;11.20;89.30
13086;DHT22;6609;49.882;8.664;2022-11-15T04:59:55;11.20;89.30
13086;DHT22;6609;49.882;8.664;2022-11-15T05:02:22;11.20;89.30
13086;DHT22;6609;49.882;8.664;2022-11-15T05:04:48;11.20;89.30
13086;DHT22;6609;49.882;8.664;2022-11-15T05:07:14;11.20;89.90
13086;DHT22;6609;49.882;8.664;2022-11-15T05:09:42;11.20;90.20
13086;DHT22;6609;49.882;8.664;2022-11-15T05:12:09;11.20;90.40
13086;DHT22;6609;49.882;8.664;2022-11-15T05:14:35;11.20;90.60
13086;DHT22;6609;49.882;8.664;2022-11-15T05:17:02;11.20;90.70
13086;DHT22;6609;49.882;8.664;2022-11-15T05:19:29;11.20;90.80
13086;DHT22;6609;49.882;8.664;2022-11-15T05:21:55;11.30;90.90
13086;DHT22;6609;49.882;8.664;2022-11-15T05:24:22;11.30;91.00
13086;DHT22;6609;49.882;8.664;2022-11-15T05:26:50;11.30;91.00
13086;DHT22;6609;49.882;8.664;2022-11-15T05:29:17;11.30;91.10
13086;DHT22;6609;49.882;8.664;2022-11-15T05:31:43;11.30;91.10
13086;DHT22;6609;49.882;8.664;2022-11-15T05:34:10;11.30;91.10
13086;DHT22;6609;49.882;8.664;2022-11-15T05:36:38;11.30;91.50
13086;DHT22;6609;49.882;8.664;2022-11-15T05:39:07;11.30;91.50
13086;DHT22;6609;49.882;8.664;2022-11-15T05:41:38;11.30;91.60
13086;DHT22;6609;49.882;8.664;2022-11-15T05:44:10;11.20;91.40
13086;DHT22;6609;49.882;8.664;2022-11-15T05:46:38;11.20;91.80
13086;DHT22;6609;49.882;8.664;2022-11-15T05:49:09;11.20;91.80
13086;DHT22;6609;49.882;8.664;2022-11-15T05:51:38;11.20;91.80
13086;DHT22;6609;49.882;8.664;2022-11-15T05:54:05;11.20;91.60
13086;DHT22;6609;49.882;8.664;2022-11-15T05:56:32;11.20;91.90
13086;DHT22;6609;49.882;8.664;2022-11-15T05:58:59;11.20;92.10
13086;DHT22;6609;49.882;8.664;2022-11-15T06:01:27;11.20;92.20
13086;DHT22;6609;49.882;8.664;2022-11-15T06:03:54;11.30;92.20
13086;DHT22;6609;49.882;8.664;2022-11-15T06:06:23;11.30;92.30
13086;DHT22;6609;49.882;8.664;2022-11-15T06:08:50;11.40;92.30
13086;DHT22;6609;49.882;8.664;2022-11-15T06:11:17;11.40;92.30
13086;DHT22;6609;49.882;8.664;2022-11-15T06:13:44;11.40;92.20
13086;DHT22;6609;49.882;8.664;2022-11-15T06:16:10;11.40;92.20
13086;DHT22;6609;49.882;8.664;2022-11-15T06:18:39;11.40;92.30
13086;DHT22;6609;49.882;8.664;2022-11-15T06:21:05;11.40;92.30
13086;DHT22;6609;49.882;8.664;2022-11-15T06:23:33;11.40;92.30
13086;DHT22;6609;49.882;8.664;2022-11-15T06:26:01;11.40;92.30
13086;DHT22;6609;49.882;8.664;2022-11-15T06:28:28;11.40;92.50
13086;DHT22;6609;49.882;8.664;2022-11-15T06:30:55;11.40;92.60
13086;DHT22;6609;49.882;8.664;2022-11-15T06:33:22;11.40;92.60
13086;DHT22;6609;49.882;8.664;2022-11-15T06:35:50;11.40;92.60
13086;DHT22;6609;49.882;8.664;2022-11-15T06:38:17;11.30;92.60
13086;DHT22;6609;49.882;8.664;2022-11-15T06:40:43;11.40;92.80
13086;DHT22;6609;49.882;8.664;2022-11-15T06:43:10;11.50;92.90
13086;DHT22;6609;49.882;8.664;2022-11-15T06:45:37;11.40;92.90
13086;DHT22;6609;49.882;8.664;2022-11-15T06:48:04;11.50;92.90
13086;DHT22;6609;49.882;8.664;2022-11-15T06:50:31;11.50;93.00
13086;DHT22;6609;49.882;8.664;2022-11-15T06:53:02;11.60;93.00
13086;DHT22;6609;49.882;8.664;2022-11-15T06:55:29;11.60;93.00
13086;DHT22;6609;49.882;8.664;2022-11-15T06:57:56;11.70;92.80
13086;DHT22;6609;49.882;8.664;2022-11-15T07:00:23;11.80;92.70
13086;DHT22;6609;49.882;8.664;2022-11-15T07:02:49;11.90;92.40
13086;DHT22;6609;49.882;8.664;2022-11-15T07:05:16;11.90;92.10
13086;DHT22;6609;49.882;8.664;2022-11-15T07:07:45;12.00;91.80
13086;DHT22;6609;49.882;8.664;2022-11-15T07:10:18;12.10;91.40
13086;DHT22;6609;49.882;8.664;2022-11-15T07:12:47;12.10;90.80
13086;DHT22;6609;49.882;8.664;2022-11-15T07:15:13;12.20;90.60
13086;DHT22;6609;49.882;8.664;2022-11-15T07:17:40;12.30;90.40
13086;DHT22;6609;49.882;8.664;2022-11-15T07:20:07;12.30;90.20
13086;DHT22;6609;49.882;8.664;2022-11-15T07:22:34;12.40;89.80
13086;DHT22;6609;49.882;8.664;2022-11-15T07:25:01;12.50;89.10
13086;DHT22;6609;49.882;8.664;2022-11-15T07:27:29;12.50;88.40
13086;DHT22;6609;49.882;8.664;2022-11-15T07:29:56;12.60;88.00
13086;DHT22;6609;49.882;8.664;2022-11-15T07:32:23;12.60;87.00
13086;DHT22;6609;49.882;8.664;2022-11-15T07:34:50;12.70;86.00
13086;DHT22;6609;49.882;8.664;2022-11-15T07:37:17;12.70;85.10
13086;DHT22;6609;49.882;8.664;2022-11-15T07:39:43;12.80;84.80
13086;DHT22;6609;49.882;8.664;2022-11-15T07:42:10;12.80;84.60
13086;DHT22;6609;49.882;8.664;2022-11-15T07:44:56;12.80;84.50
13086;DHT22;6609;49.882;8.664;2022-11-15T07:47:22;12.80;84.50
13086;DHT22;6609;49.882;8.664;2022-11-15T07:49:49;12.80;84.60
13086;DHT22;6609;49.882;8.664;2022-11-15T07:52:16;12.80;84.80
13086;DHT22;6609;49.882;8.664;2022-11-15T07:54:43;12.80;85.10
13086;DHT22;6609;49.882;8.664;2022-11-15T07:57:09;12.80;85.50
13086;DHT22;6609;49.882;8.664;2022-11-15T07:59:36;12.80;85.50
13086;DHT22;6609;49.882;8.664;2022-11-15T08:02:04;12.80;85.90
13086;DHT22;6609;49.882;8.664;2022-11-15T08:04:31;12.80;86.20
13086;DHT22;6609;49.882;8.664;2022-11-15T08:06:58;12.80;86.30
13086;DHT22;6609;49.882;8.664;2022-11-15T08:09:24;12.90;86.20
13086;DHT22;6609;49.882;8.664;2022-11-15T08:11:51;12.90;85.90
13086;DHT22;6609;49.882;8.664;2022-11-15T08:14:18;13.00;86.10
13086;DHT22;6609;49.882;8.664;2022-11-15T08:16:47;13.00;86.30
13086;DHT22;6609;49.882;8.664;2022-11-15T08:19:15;13.00;86.00
13086;DHT22;6609;49.882;8.664;2022-11-15T08:21:42;13.10;85.70
13086;DHT22;6609;49.882;8.664;2022-11-15T08:24:09;13.10;85.30
13086;DHT22;6609;49.882;8.664;2022-11-15T08:26:36;13.20;85.50
13086;DHT22;6609;49.882;8.664;2022-11-15T08:29:03;13.20;85.60
13086;DHT22;6609;49.882;8.664;2022-11-15T08:31:30;13.30;85.90
13086;DHT22;6609;49.882;8.664;2022-11-15T08:33:56;13.40;86.10
13086;DHT22;6609;49.882;8.664;2022-11-15T08:36:24;13.40;86.60
13086;DHT22;6609;49.882;8.664;2022-11-15T08:38:51;13.50;86.80
13086;DHT22;6609;49.882;8.664;2022-11-15T08:41:24;13.50;87.50
13086;DHT22;6609;49.882;8.664;2022-11-15T08:43:52;13.50;86.70
13086;DHT22;6609;49.882;8.664;2022-11-15T08:46:18;13.50;86.80
13086;DHT22;6609;49.882;8.664;2022-11-15T08:48:45;13.50;87.00
13086;DHT22;6609;49.882;8.664;2022-11-15T08:51:12;13.50;87.20
13086;DHT22;6609;49.882;8.664;2022-11-15T08:53:40;13.50;87.40
13086;DHT22;6609;49.882;8.664;2022-11-15T08:56:08;13.60;87.70
13086;DHT22;6609;49.882;8.664;2022-11-15T08:58:35;13.60;88.00
13086;DHT22;6609;49.882;8.664;2022-11-15T09:01:01;13.60;88.00
13086;DHT22;6609;49.882;8.664;2022-11-15T09:03:29;13.70;87.60
13086;DHT22;6609;49.882;8.664;2022-11-15T09:05:56;13.70;86.80
13086;DHT22;6609;49.882;8.664;2022-11-15T09:08:23;13.80;86.00
13086;DHT22;6609;49.882;8.664;2022-11-15T09:10:51;13.80;85.10
13086;DHT22;6609;49.882;8.664;2022-11-15T09:13:18;13.80;84.60
13086;DHT22;6609;49.882;8.664;2022-11-15T09:15:44;13.90;83.50
13086;DHT22;6609;49.882;8.664;2022-11-15T09:18:11;14.00;82.50
13086;DHT22;6609;49.882;8.664;2022-11-15T09:20:38;14.00;81.60
13086;DHT22;6609;49.882;8.664;2022-11-15T09:23:05;14.20;80.60
13086;DHT22;6609;49.882;8.664;2022-11-15T09:25:32;14.30;79.80
13086;DHT22;6609;49.882;8.664;2022-11-15T09:28:00;14.50;78.20
13086;DHT22;6609;49.882;8.664;2022-11-15T09:30:27;14.50;77.80
13086;DHT22;6609;49.882;8.664;2022-11-15T09:32:54;14.60;77.80
13086;DHT22;6609;49.882;8.664;2022-11-15T09:35:20;14.60;76.80
13086;DHT22;6609;49.882;8.664;2022-11-15T09:37:47;14.60;76.90
13086;DHT22;6609;49.882;8.664;2022-11-15T09:40:15;14.60;76.60
13086;DHT22;6609;49.882;8.664;2022-11-15T09:43:11;14.50;76.00
13086;DHT22;6609;49.882;8.664;2022-11-15T09:45:50;14.50;75.90
13086;DHT22;6609;49.882;8.664;2022-11-15T09:48:38;14.40;75.80
13086;DHT22;6609;49.882;8.664;2022-11-15T09:51:17;14.40;76.10
13086;DHT22;6609;49.882;8.664;2022-11-15T09:53:51;14.60;76.50
13086;DHT22;6609;49.882;8.664;2022-11-15T09:56:21;14.90;75.90
13086;DHT22;6609;49.882;8.664;2022-11-15T09:58:57;15.20;75.30
13086;DHT22;6609;49.882;8.664;2022-11-15T10:01:36;15.20;75.00
13086;DHT22;6609;49.882;8.664;2022-11-15T10:04:05;15.40;74.20
13086;DHT22;6609;49.882;8.664;2022-11-15T10:06:33;15.40;74.40
13086;DHT22;6609;49.882;8.664;2022-11-15T10:09:05;15.40;73.10
13086;DHT22;6609;49.882;8.664;2022-11-15T10:11:35;15.60;73.00
13086;DHT22;6609;49.882;8.664;2022-11-15T10:14:10;15.70;71.80
13086;DHT22;6609;49.882;8.664;2022-11-15T10:17:00;15.50;71.30
13086;DHT22;6609;49.882;8.664;2022-11-15T10:19:35;15.50;71.30
13086;DHT22;6609;49.882;8.664;2022-11-15T10:22:16;15.40;71.50
13086;DHT22;6609;49.882;8.664;2022-11-15T10:24:46;15.50;72.70
13086;DHT22;6609;49.882;8.664;2022-11-15T10:27:14;15.60;71.10
13086;DHT22;6609;49.882;8.664;2022-11-15T10:29:45;15.50;71.00
13086;DHT22;6609;49.882;8.664;2022-11-15T10:32:15;15.50;70.70
13086;DHT22;6609;49.882;8.664;2022-11-15T10:34:42;15.40;70.90
13086;DHT22;6609;49.882;8.664;2022-11-15T10:37:08;15.40;71.50
13086;DHT22;6609;49.882;8.664;2022-11-15T10:39:35;15.30;71.40
13086;DHT22;6609;49.882;8.664;2022-11-15T10:42:16;15.40;71.60
13086;DHT22;6609;49.882;8.664;2022-11-15T10:44:45;15.40;71.10
13086;DHT22;6609;49.882;8.664;2022-11-15T10:47:33;15.30;71.10
13086;DHT22;6609;49.882;8.664;2022-11-15T10:50:05;15.20;71.40
13086;DHT22;6609;49.882;8.664;2022-11-15T10:52:34;15.20;71.70
13086;DHT22;6609;49.882;8.664;2022-11-15T10:55:21;15.10;72.10
13086;DHT22;6609;49.882;8.664;2022-11-15T10:57:51;15.00;72.60
13086;DHT22;6609;49.882;8.664;2022-11-15T11:00:32;15.00;72.70
13086;DHT22;6609;49.882;8.664;2022-11-15T11:03:02;14.90;72.80
13086;DHT22;6609;49.882;8.664;2022-11-15T11:05:31;14.90;73.00
13086;DHT22;6609;49.882;8.664;2022-11-15T11:08:01;14.80;73.70
13086;DHT22;6609;49.882;8.664;2022-11-15T11:10:29;14.80;75.20
13086;DHT22;6609;49.882;8.664;2022-11-15T11:12:55;14.80;74.70
13086;DHT22;6609;49.882;8.664;2022-11-15T11:15:24;14.80;74.60
13086;DHT22;6609;49.882;8.664;2022-11-15T11:18:00;14.80;74.70
13086;DHT22;6609;49.882;8.664;2022-11-15T11:20:33;14.80;75.00
13086;DHT22;6609;49.882;8.664;2022-11-15T11:23:16;14.90;75.30
13086;DHT22;6609;49.882;8.664;2022-11-15T11:25:53;15.10;75.60
13086;DHT22;6609;49.882;8.664;2022-11-15T11:28:32;15.20;75.30
13086;DHT22;6609;49.882;8.664;2022-11-15T11:31:18;15.50;75.10
13086;DHT22;6609;49.882;8.664;2022-11-15T11:33:56;15.80;74.60
13086;DHT22;6609;49.882;8.664;2022-11-15T11:36:27;16.10;73.60
13086;DHT22;6609;49.882;8.664;2022-11-15T11:39:10;16.30;73.40
13086;DHT22;6609;49.882;8.664;2022-11-15T11:41:49;16.40;71.90
13086;DHT22;6609;49.882;8.664;2022-11-15T11:44:28;16.00;71.20
13086;DHT22;6609;49.882;8.664;2022-11-15T11:47:00;17.00;72.40
13086;DHT22;6609;49.882;8.664;2022-11-15T11:49:33;16.20;71.60
13086;DHT22;6609;49.882;8.664;2022-11-15T11:52:05;16.20;71.80
13086;DHT22;6609;49.882;8.664;2022-11-15T11:54:40;16.10;70.80
13086;DHT22;6609;49.882;8.664;2022-11-15T11:57:17;16.10;71.20
13086;DHT22;6609;49.882;8.664;2022-11-15T11:59:49;16.10;71.50
13086;DHT22;6609;49.882;8.664;2022-11-15T12:02:25;16.10;71.50
13086;DHT22;6609;49.882;8.664;2022-11-15T12:05:01;16.20;71.20
13086;DHT22;6609;49.882;8.664;2022-11-15T12:07:32;16.30;70.70
13086;DHT22;6609;49.882;8.664;2022-11-15T12:10:04;16.40;70.20
13086;DHT22;6609;49.882;8.664;2022-11-15T12:12:46;16.50;69.40
13086;DHT22;6609;49.882;8.664;2022-11-15T12:15:16;16.50;68.70
13086;DHT22;6609;49.882;8.664;2022-11-15T12:17:44;16.50;68.40
13086;DHT22;6609;49.882;8.664;2022-11-15T12:20:19;16.60;67.10
13086;DHT22;6609;49.882;8.664;2022-11-15T12:22:52;16.60;66.90
13086;DHT22;6609;49.882;8.664;2022-11-15T12:25:22;16.70;67.00
13086;DHT22;6609;49.882;8.664;2022-11-15T12:27:54;16.70;66.10
13086;DHT22;6609;49.882;8.664;2022-11-15T12:30:22;16.70;66.10
13086;DHT22;6609;49.882;8.664;2022-11-15T12:32:54;16.70;65.60
13086;DHT22;6609;49.882;8.664;2022-11-15T12:35:28;16.70;65.40
13086;DHT22;6609;49.882;8.664;2022-11-15T12:37:56;16.90;65.00
13086;DHT22;6609;49.882;8.664;2022-11-15T12:40:29;16.70;64.90
13086;DHT22;6609;49.882;8.664;2022-11-15T12:42:59;16.60;65.10
13086;DHT22;6609;49.882;8.664;2022-11-15T12:45:28;16.60;65.30
13086;DHT22;6609;49.882;8.664;2022-11-15T12:50:59;16.50;65.70
13086;DHT22;6609;49.882;8.664;2022-11-15T12:53:27;16.40;66.00
13086;DHT22;6609;49.882;8.664;2022-11-15T12:56:20;16.40;66.00
13086;DHT22;6609;49.882;8.664;2022-11-15T12:58:49;16.30;65.60
13086;DHT22;6609;49.882;8.664;2022-11-15T13:04:25;16.10;66.50
13086;DHT22;6609;49.882;8.664;2022-11-15T13:06:55;16.00;66.60
13086;DHT22;6609;49.882;8.664;2022-11-15T13:09:54;15.90;66.40
13086;DHT22;6609;49.882;8.664;2022-11-15T13:12:55;15.90;66.60
13086;DHT22;6609;49.882;8.664;2022-11-15T13:15:38;15.90;67.40
13086;DHT22;6609;49.882;8.664;2022-11-15T13:18:31;15.80;67.50
13086;DHT22;6609;49.882;8.664;2022-11-15T13:20:59;15.80;68.10
13086;DHT22;6609;49.882;8.664;2022-11-15T13:23:27;15.80;68.50
13086;DHT22;6609;49.882;8.664;2022-11-15T13:26:12;15.70;68.70
13086;DHT22;6609;49.882;8.664;2022-11-15T13:28:43;15.70;68.70
13086;DHT22;6609;49.882;8.664;2022-11-15T13:31:34;15.70;68.70
13086;DHT22;6609;49.882;8.664;2022-11-15T13:34:12;15.70;68.80
13086;DHT22;6609;49.882;8.664;2022-11-15T13:36:40;15.70;69.50
13086;DHT22;6609;49.882;8.664;2022-11-15T13:39:23;15.70;69.50
13086;DHT22;6609;49.882;8.664;2022-11-15T13:41:52;15.70;69.80
13086;DHT22;6609;49.882;8.664;2022-11-15T13:44:20;15.70;69.70
13086;DHT22;6609;49.882;8.664;2022-11-15T13:46:47;15.70;69.60
13086;DHT22;6609;49.882;8.664;2022-11-15T13:49:14;15.80;69.80
13086;DHT22;6609;49.882;8.664;2022-11-15T13:51:44;15.80;70.00
13086;DHT22;6609;49.882;8.664;2022-11-15T13:54:19;15.80;69.80
13086;DHT22;6609;49.882;8.664;2022-11-15T13:56:49;15.80;70.70
13086;DHT22;6609;49.882;8.664;2022-11-15T13:59:21;15.80;70.80
13086;DHT22;6609;49.882;8.664;2022-11-15T14:01:49;15.90;70.60
13086;DHT22;6609;49.882;8.664;2022-11-15T14:04:20;15.70;70.40
13086;DHT22;6609;49.882;8.664;2022-11-15T14:06:50;15.70;70.70
13086;DHT22;6609;49.882;8.664;2022-11-15T14:09:46;15.70;71.20
13086;DHT22;6609;49.882;8.664;2022-11-15T14:12:26;15.70;71.70
13086;DHT22;6609;49.882;8.664;2022-11-15T14:14:53;15.70;71.60
13086;DHT22;6609;49.882;8.664;2022-11-15T14:17:34;15.70;72.00
13086;DHT22;6609;49.882;8.664;2022-11-15T14:20:02;15.70;71.80
13086;DHT22;6609;49.882;8.664;2022-11-15T14:22:29;15.70;71.60
13086;DHT22;6609;49.882;8.664;2022-11-15T14:25:15;15.80;71.70
13086;DHT22;6609;49.882;8.664;2022-11-15T14:27:43;15.70;71.80
13086;DHT22;6609;49.882;8.664;2022-11-15T14:30:14;15.70;71.60
13086;DHT22;6609;49.882;8.664;2022-11-15T14:32:44;15.70;71.40
13086;DHT22;6609;49.882;8.664;2022-11-15T14:35:15;15.70;71.80
13086;DHT22;6609;49.882;8.664;2022-11-15T14:37:42;15.70;72.30
13086;DHT22;6609;49.882;8.664;2022-11-15T14:40:14;15.70;73.30
13086;DHT22;6609;49.882;8.664;2022-11-15T14:42:41;15.60;73.50
13086;DHT22;6609;49.882;8.664;2022-11-15T14:45:11;15.60;73.20
13086;DHT22;6609;49.882;8.664;2022-11-15T14:47:39;15.60;73.80
13086;DHT22;6609;49.882;8.664;2022-11-15T14:50:10;15.60;74.50
13086;DHT22;6609;49.882;8.664;2022-11-15T14:52:36;15.60;74.20
13086;DHT22;6609;49.882;8.664;2022-11-15T14:55:14;15.50;73.50
13086;DHT22;6609;49.882;8.664;2022-11-15T14:57:42;15.50;73.30
13086;DHT22;6609;49.882;8.664;2022-11-15T15:00:10;15.50;73.60
13086;DHT22;6609;49.882;8.664;2022-11-15T15:02:38;15.10;73.30
13086;DHT22;6609;49.882;8.664;2022-11-15T15:05:14;15.50;73.10
13086;DHT22;6609;49.882;8.664;2022-11-15T15:07:41;15.40;73.00
13086;DHT22;6609;49.882;8.664;2022-11-15T15:10:08;15.40;73.00
13086;DHT22;6609;49.882;8.664;2022-11-15T15:12:36;15.30;72.80
13086;DHT22;6609;49.882;8.664;2022-11-15T15:15:03;15.20;72.90
13086;DHT22;6609;49.882;8.664;2022-11-15T15:17:30;15.20;72.80
13086;DHT22;6609;49.882;8.664;2022-11-15T15:19:57;15.20;72.80
13086;DHT22;6609;49.882;8.664;2022-11-15T15:22:26;15.10;72.70
13086;DHT22;6609;49.882;8.664;2022-11-15T15:24:54;15.10;72.70
13086;DHT22;6609;49.882;8.664;2022-11-15T15:27:21;15.10;73.00
13086;DHT22;6609;49.882;8.664;2022-11-15T15:29:49;15.20;73.20
13086;DHT22;6609;49.882;8.664;2022-11-15T15:32:16;15.00;73.20
13086;DHT22;6609;49.882;8.664;2022-11-15T15:34:42;15.10;73.60
13086;DHT22;6609;49.882;8.664;2022-11-15T15:37:21;15.00;73.30
13086;DHT22;6609;49.882;8.664;2022-11-15T15:39:49;14.90;73.80
13086;DHT22;6609;49.882;8.664;2022-11-15T15:42:16;14.80;73.30
13086;DHT22;6609;49.882;8.664;2022-11-15T15:44:42;14.80;73.60
13086;DHT22;6609;49.882;8.664;2022-11-15T15:47:11;14.90;74.00
13086;DHT22;6609;49.882;8.664;2022-11-15T15:49:38;14.80;74.10
13086;DHT22;6609;49.882;8.664;2022-11-15T15:52:05;14.80;74.10
13086;DHT22;6609;49.882;8.664;2022-11-15T15:54:32;14.70;74.60
13086;DHT22;6609;49.882;8.664;2022-11-15T15:56:58;14.70;74.30
13086;DHT22;6609;49.882;8.664;2022-11-15T15:59:25;14.70;74.10
13086;DHT22;6609;49.882;8.664;2022-11-15T16:01:52;14.70;73.90
13086;DHT22;6609;49.882;8.664;2022-11-15T16:04:20;14.70;73.90
13086;DHT22;6609;49.882;8.664;2022-11-15T16:06:47;14.60;73.60
13086;DHT22;6609;49.882;8.664;2022-11-15T16:09:17;14.60;73.70
13086;DHT22;6609;49.882;8.664;2022-11-15T16:11:45;14.60;73.90